Time;durP1;ratioP1;P1;durP2;ratioP2;P2;SDS_P1;SDS_P2;PMS_P1;PMS_P2;Temp;Humidity;BMP_temperature;BMP_pressure;BME280_temperature;BME280_humidity;BME280_pressure;Samples;Min_cycle;Max_cycle;Signal;HPM_P1;HPM_P2
2023/05/29 00:00:33;;;;;;;14.98;7.38;;;;;;;8.68;100.00;93000.97;2091641;28;20518;-83
2023/05/29 00:01:42;;;;;;;15.00;8.13;;;;;;;8.64;100.00;93003.69;2099493;28;20028;-84
2023/05/29 00:02:53;;;;;;;18.40;8.43;;;;;;;8.58;100.00;93006.06;2101333;28;20111;-84
2023/05/29 00:04:06;;;;;;;14.45;7.82;;;;;;;8.60;100.00;93004.88;2099154;28;20036;-87
2023/05/29 00:05:14;;;;;;;16.23;8.40;;;;;;;8.64;100.00;93002.94;2101328;28;20082;-83
2023/05/29 00:06:24;;;;;;;20.20;8.73;;;;;;;8.61;100.00;93009.09;2098730;28;20016;-84
2023/05/29 00:07:35;;;;;;;21.55;9.07;;;;;;;8.63;100.00;93002.19;2100425;28;20505;-84
2023/05/29 00:08:45;;;;;;;14.80;7.93;;;;;;;8.54;100.00;93007.28;2099368;28;20074;-84
2023/05/29 00:09:55;;;;;;;19.52;7.90;;;;;;;8.40;100.00;93010.91;2099121;28;20029;-83
2023/05/29 00:11:08;;;;;;;13.73;7.55;;;;;;;8.48;100.00;93014.97;2103605;28;20104;-82
2023/05/29 00:12:18;;;;;;;15.18;7.30;;;;;;;8.46;100.00;92998.63;2099839;28;20028;-84
2023/05/29 00:13:28;;;;;;;15.40;7.63;;;;;;;8.44;100.00;93010.88;2101297;28;20523;-84
2023/05/29 00:14:38;;;;;;;13.50;7.88;;;;;;;8.40;100.00;93007.50;2097765;28;20021;-82
2023/05/29 00:15:48;;;;;;;14.18;7.38;;;;;;;8.39;100.00;93003.34;2092508;28;20036;-82
2023/05/29 00:16:57;;;;;;;14.10;7.45;;;;;;;8.39;100.00;93014.00;2096634;28;20139;-85
2023/05/29 00:18:08;;;;;;;16.70;8.40;;;;;;;8.44;100.00;92998.28;2091933;28;20044;-86
2023/05/29 00:19:21;;;;;;;17.15;8.43;;;;;;;8.38;100.00;93007.13;2100599;28;20024;-83
2023/05/29 00:20:34;;;;;;;19.90;8.50;;;;;;;8.45;100.00;92997.13;2105949;28;20081;-83
2023/05/29 00:21:47;;;;;;;19.40;8.00;;;;;;;8.42;100.00;93003.25;2098417;28;20513;-84
2023/05/29 00:22:58;;;;;;;15.88;7.72;;;;;;;8.37;100.00;92997.66;2105759;28;20490;-85
2023/05/29 00:24:13;;;;;;;17.50;7.50;;;;;;;8.38;100.00;92999.16;2101314;28;20039;-82
2023/05/29 00:25:25;;;;;;;15.63;8.70;;;;;;;8.39;100.00;93001.41;2105780;28;20726;-86
2023/05/29 00:26:38;;;;;;;35.22;7.63;;;;;;;8.31;100.00;93002.66;2091755;28;20033;-87
2023/05/29 00:27:50;;;;;;;15.68;7.40;;;;;;;8.26;100.00;93003.13;2092984;28;20025;-82
2023/05/29 00:28:58;;;;;;;17.58;8.40;;;;;;;8.29;100.00;93002.28;2100461;27;20413;-85
2023/05/29 00:30:12;;;;;;;19.98;7.88;;;;;;;8.27;100.00;93008.03;2099291;28;20081;-85
2023/05/29 00:31:24;;;;;;;16.45;8.18;;;;;;;8.24;100.00;93000.09;2113002;28;20575;-85
2023/05/29 00:32:36;;;;;;;16.23;8.18;;;;;;;8.19;100.00;92998.63;2117599;27;20063;-85
2023/05/29 00:33:46;;;;;;;15.93;7.63;;;;;;;8.22;100.00;93005.06;2107932;28;20031;-82
2023/05/29 00:34:52;;;;;;;;;;;;;;;8.19;100.00;93001.28;2084674;28;20674;-82
2023/05/29 00:36:01;;;;;;;19.30;7.60;;;;;;;8.09;100.00;92994.22;2094164;28;20011;-80
2023/05/29 00:37:10;;;;;;;18.25;7.75;;;;;;;8.13;100.00;93008.25;2109048;28;20028;-78
2023/05/29 00:38:22;;;;;;;23.47;7.53;;;;;;;8.14;100.00;93001.75;2096013;28;20025;-80
2023/05/29 00:39:32;;;;;;;13.70;7.57;;;;;;;8.01;100.00;93008.78;2089926;28;20499;-81
2023/05/29 00:40:47;;;;;;;15.75;8.25;;;;;;;8.02;100.00;93008.38;2094432;28;20051;-85
2023/05/29 00:41:55;;;;;;;17.35;8.23;;;;;;;7.99;100.00;93006.53;2103175;28;20028;-86
2023/05/29 00:43:05;;;;;;;21.55;8.10;;;;;;;7.98;100.00;93001.59;2100007;28;20031;-86
2023/05/29 00:44:15;;;;;;;17.27;7.85;;;;;;;8.03;100.00;93001.91;2101620;28;20483;-82
2023/05/29 00:45:27;;;;;;;14.45;7.38;;;;;;;8.02;100.00;93008.38;2100406;28;20051;-84
2023/05/29 00:46:40;;;;;;;18.10;7.93;;;;;;;7.98;100.00;93005.00;2104275;28;20075;-82
2023/05/29 00:47:51;;;;;;;13.45;7.65;;;;;;;8.05;100.00;92996.19;2105568;28;20042;-83
2023/05/29 00:49:01;;;;;;;17.70;8.75;;;;;;;8.02;100.00;92992.41;2107124;28;20039;-85
2023/05/29 00:50:13;;;;;;;;;;;;;;;7.90;100.00;92998.31;2094301;28;20032;-81
2023/05/29 00:51:23;;;;;;;13.40;7.65;;;;;;;7.90;100.00;93003.63;2099958;28;19950;-81
2023/05/29 00:52:34;;;;;;;26.27;8.52;;;;;;;7.83;100.00;93007.13;2101097;28;20032;-81
2023/05/29 00:53:48;;;;;;;17.90;7.80;;;;;;;7.88;100.00;93011.25;2099901;28;20032;-84
2023/05/29 00:55:01;;;;;;;14.45;7.78;;;;;;;7.91;100.00;93007.78;2091913;28;20029;-81
2023/05/29 00:56:12;;;;;;;15.48;7.53;;;;;;;7.91;100.00;93007.03;2096190;28;20021;-82
2023/05/29 00:57:23;;;;;;;15.18;8.10;;;;;;;7.95;100.00;93003.16;2100501;28;20070;-85
2023/05/29 00:58:33;;;;;;;15.93;7.97;;;;;;;7.87;100.00;93008.97;2099467;28;20024;-83
2023/05/29 00:59:41;;;;;;;;;;;;;;;8.05;100.00;93004.91;2100800;28;20044;-84
2023/05/29 01:01:07;;;;;;;13.93;7.43;;;;;;;7.99;100.00;93009.19;2097550;28;19913;-83
2023/05/29 01:02:18;;;;;;;19.45;7.57;;;;;;;7.93;100.00;93013.44;2093996;28;20039;-83
2023/05/29 01:03:28;;;;;;;18.30;7.35;;;;;;;8.06;100.00;93014.41;2107771;28;20060;-83
2023/05/29 01:04:38;;;;;;;17.10;7.95;;;;;;;7.88;100.00;93016.56;2114380;28;20015;-83
2023/05/29 01:05:48;;;;;;;18.88;8.05;;;;;;;7.86;100.00;93010.13;2099001;28;20028;-82
2023/05/29 01:06:57;;;;;;;13.82;8.43;;;;;;;7.71;100.00;93015.63;2091090;28;20553;-84
2023/05/29 01:08:17;;;;;;;14.73;7.75;;;;;;;7.73;100.00;93010.69;2090366;28;20021;-80
2023/05/29 01:09:29;;;;;;;28.77;8.43;;;;;;;7.72;100.00;93016.38;2099227;28;20074;-82
2023/05/29 01:10:44;;;;;;;17.25;8.45;;;;;;;7.74;100.00;93008.75;2098747;28;20473;-83
2023/05/29 01:12:07;;;;;;;18.90;7.90;;;;;;;7.82;100.00;93008.28;2093268;28;20413;-80
2023/05/29 01:13:29;;;;;;;16.25;7.85;;;;;;;7.73;100.00;93008.00;2095815;28;20028;-82
2023/05/29 01:14:50;;;;;;;13.13;7.63;;;;;;;7.74;100.00;93006.09;2094980;28;20495;-85
2023/05/29 01:16:07;;;;;;;19.33;8.82;;;;;;;7.63;100.00;93006.22;2100432;28;20543;-84
2023/05/29 01:17:29;;;;;;;16.95;7.70;;;;;;;7.64;100.00;93009.63;2100145;28;20630;-81
2023/05/29 01:19:13;;;;;;;14.13;7.35;;;;;;;7.67;100.00;93006.19;2105929;28;20034;-84
2023/05/29 01:20:36;;;;;;;17.73;8.10;;;;;;;7.53;100.00;93007.13;2112035;28;20081;-83
2023/05/29 01:22:22;;;;;;;17.38;7.68;;;;;;;7.55;100.00;93010.13;2100955;28;20058;-82
2023/05/29 01:23:54;;;;;;;18.58;8.10;;;;;;;7.56;100.00;93007.09;2071166;28;20534;-81
2023/05/29 01:25:22;;;;;;;20.55;8.77;;;;;;;7.77;100.00;92997.31;2093814;28;20036;-83
2023/05/29 01:26:40;;;;;;;16.02;8.50;;;;;;;7.63;100.00;93005.47;2104457;28;20027;-83
2023/05/29 01:27:55;;;;;;;15.75;7.85;;;;;;;7.53;100.00;93007.88;2100059;28;20035;-86
2023/05/29 01:29:10;;;;;;;18.98;8.32;;;;;;;7.40;100.00;93001.56;2100186;28;20017;-82
2023/05/29 01:30:21;;;;;;;15.05;7.93;;;;;;;7.40;100.00;93011.44;2107898;28;20105;-82
2023/05/29 01:31:30;;;;;;;27.55;9.07;;;;;;;7.49;100.00;93001.84;2105423;28;20027;-81
2023/05/29 01:32:45;;;;;;;18.65;8.57;;;;;;;7.55;100.00;92996.81;2091042;28;20355;-84
2023/05/29 01:34:04;;;;;;;19.80;9.15;;;;;;;7.49;100.00;93009.06;2107780;28;20056;-82
2023/05/29 01:35:16;;;;;;;19.58;8.40;;;;;;;7.45;100.00;93009.09;2091407;28;20025;-80
2023/05/29 01:36:29;;;;;;;17.85;7.97;;;;;;;7.40;100.00;93014.13;2105766;28;20024;-85
2023/05/29 01:37:39;;;;;;;15.63;8.15;;;;;;;7.36;100.00;93008.81;2105481;28;20690;-85
2023/05/29 01:38:46;;;;;;;;;;;;;;;7.40;100.00;93008.78;2092050;28;20025;-83
2023/05/29 01:39:53;;;;;;;20.15;8.38;;;;;;;7.34;100.00;93010.41;2090393;28;19920;-82
2023/05/29 01:41:04;;;;;;;14.70;7.90;;;;;;;7.26;100.00;93013.13;2098646;28;20028;-87
2023/05/29 01:42:14;;;;;;;16.67;7.25;;;;;;;7.20;100.00;93013.94;2105468;28;20020;-84
2023/05/29 01:43:24;;;;;;;19.15;8.85;;;;;;;7.22;100.00;93014.31;2083295;28;20029;-85
2023/05/29 01:44:35;;;;;;;17.50;8.20;;;;;;;7.22;100.00;93017.72;2096574;28;20452;-84
2023/05/29 01:45:46;;;;;;;14.98;8.70;;;;;;;7.14;100.00;93012.88;2097720;28;20025;-82
2023/05/29 01:46:55;;;;;;;17.80;8.23;;;;;;;7.20;100.00;93013.94;2098370;28;20496;-83
2023/05/29 01:48:11;;;;;;;19.58;8.77;;;;;;;7.20;100.00;93013.94;2106498;28;20555;-84
2023/05/29 01:49:22;;;;;;;20.10;9.15;;;;;;;7.23;100.00;93013.91;2107406;28;20028;-83
2023/05/29 01:50:30;;;;;;;15.82;8.55;;;;;;;7.28;100.00;93015.38;2105405;28;20468;-82
2023/05/29 01:51:35;;;;;;;18.02;7.90;;;;;;;7.20;100.00;93020.03;2106380;28;20463;-83
2023/05/29 01:52:36;;;;;;;14.90;7.88;;;;;;;7.25;100.00;93011.63;2097219;28;20024;-82
2023/05/29 01:53:38;;;;;;;19.67;8.57;;;;;;;7.26;100.00;93007.06;2089088;28;20131;-81
2023/05/29 01:54:45;;;;;;;18.35;7.78;;;;;;;7.16;100.00;93010.59;2090174;28;20025;-83
2023/05/29 01:55:56;;;;;;;13.70;7.95;;;;;;;7.13;100.00;93006.06;2090648;28;20470;-83
2023/05/29 01:57:08;;;;;;;15.57;7.82;;;;;;;7.11;100.00;93011.75;2099133;28;20056;-83
2023/05/29 01:58:19;;;;;;;18.88;9.07;;;;;;;7.07;100.00;93006.50;2091698;28;20535;-83
2023/05/29 01:59:28;;;;;;;15.13;7.63;;;;;;;7.10;100.00;93007.59;2099952;28;20028;-82
2023/05/29 02:00:38;;;;;;;18.45;8.70;;;;;;;7.09;100.00;93011.41;2098475;28;20017;-83
2023/05/29 02:01:45;;;;;;;;;;;;;;;7.13;100.00;93014.03;2088969;28;20017;-82
2023/05/29 02:02:52;;;;;;;15.10;7.35;;;;;;;7.06;100.00;93010.28;2098801;28;19913;-84
2023/05/29 02:04:02;;;;;;;20.77;8.10;;;;;;;7.04;100.00;93009.94;2105902;28;20024;-82
2023/05/29 02:05:14;;;;;;;16.67;7.70;;;;;;;7.08;100.00;93015.22;2090357;28;20052;-85
2023/05/29 02:06:25;;;;;;;17.77;8.00;;;;;;;7.00;100.00;93011.13;2090275;28;20067;-84
2023/05/29 02:07:40;;;;;;;16.65;7.22;;;;;;;6.96;100.00;93010.41;2084066;28;20021;-80
2023/05/29 02:08:50;;;;;;;14.93;8.20;;;;;;;6.92;100.00;93013.09;2093524;28;20029;-86
2023/05/29 02:10:02;;;;;;;18.17;7.80;;;;;;;6.93;100.00;93011.94;2099150;28;20028;-81
2023/05/29 02:11:11;;;;;;;16.73;8.00;;;;;;;6.95;100.00;93012.31;2108586;28;20031;-83
2023/05/29 02:12:22;;;;;;;17.52;7.88;;;;;;;7.00;100.00;93011.13;2106498;28;20024;-80
2023/05/29 02:13:30;;;;;;;15.63;8.07;;;;;;;6.89;100.00;93011.22;2098444;28;20054;-83
2023/05/29 02:14:41;;;;;;;16.27;7.95;;;;;;;6.94;100.00;93015.38;2101611;28;20020;-84
2023/05/29 02:15:51;;;;;;;16.45;8.10;;;;;;;6.91;100.00;93008.16;2090742;28;20021;-84
2023/05/29 02:17:04;;;;;;;17.33;7.88;;;;;;;6.93;100.00;93009.28;2091430;28;20036;-84
2023/05/29 02:18:17;;;;;;;17.15;7.65;;;;;;;6.86;100.00;93005.94;2100487;28;20474;-84
2023/05/29 02:21:21;;;;;;;;;;;;;;;6.91;100.00;93008.91;2132843;27;20169;-87
2023/05/29 02:22:30;;;;;;;17.67;7.85;;;;;;;6.84;100.00;93000.25;2115762;28;19965;-84
2023/05/29 02:23:40;;;;;;;19.43;9.07;;;;;;;6.89;100.00;93011.22;2104981;28;20028;-85
2023/05/29 02:24:50;;;;;;;18.73;8.10;;;;;;;6.87;100.00;93008.19;2102831;28;20557;-84
2023/05/29 02:26:00;;;;;;;22.58;8.48;;;;;;;6.75;100.00;93012.09;2108593;27;20602;-84
2023/05/29 02:27:12;;;;;;;18.50;8.65;;;;;;;6.80;100.00;93010.91;2108715;28;20024;-84
2023/05/29 02:28:25;;;;;;;21.23;8.90;;;;;;;6.73;100.00;93003.03;2104747;28;20020;-85
2023/05/29 02:29:34;;;;;;;18.60;9.52;;;;;;;6.74;100.00;93007.19;2100963;28;20051;-87
2023/05/29 02:30:43;;;;;;;19.90;8.48;;;;;;;6.75;100.00;93008.69;2108772;28;20035;-82
2023/05/29 02:31:53;;;;;;;22.58;8.95;;;;;;;6.77;100.00;93009.81;2099408;28;20021;-83
2023/05/29 02:33:02;;;;;;;16.70;8.02;;;;;;;6.82;100.00;93011.28;2095780;28;20513;-83
2023/05/29 02:34:12;;;;;;;16.10;8.45;;;;;;;6.79;100.00;93012.81;2091894;28;20037;-85
2023/05/29 02:35:22;;;;;;;17.48;7.78;;;;;;;6.73;100.00;93011.00;2094046;28;20032;-84
2023/05/29 02:36:32;;;;;;;;;;;;;;;6.79;100.00;93009.41;2104541;28;20036;-84
2023/05/29 02:37:50;;;;;;;16.13;7.72;;;;;;;6.80;100.00;93009.03;2108311;27;19916;-83
2023/05/29 02:38:57;;;;;;;19.17;8.18;;;;;;;6.74;100.00;93015.16;2104226;28;20036;-85
2023/05/29 02:40:08;;;;;;;17.00;8.15;;;;;;;6.85;100.00;93018.47;2101374;28;20020;-82
2023/05/29 02:41:17;;;;;;;22.80;8.73;;;;;;;6.71;100.00;93015.94;2108912;28;20028;-83
2023/05/29 02:42:27;;;;;;;20.05;8.02;;;;;;;6.72;100.00;93012.91;2099195;28;20035;-82
2023/05/29 02:43:35;;;;;;;20.35;8.80;;;;;;;6.63;100.00;93009.94;2107201;28;20071;-84
2023/05/29 02:44:44;;;;;;;19.10;8.82;;;;;;;6.63;100.00;93007.28;2116418;28;20026;-85
2023/05/29 02:45:53;;;;;;;12.98;8.05;;;;;;;6.65;100.00;93010.28;2099213;28;20041;-84
2023/05/29 02:47:02;;;;;;;18.25;8.05;;;;;;;6.63;100.00;93003.84;2108199;28;20039;-84
2023/05/29 02:48:12;;;;;;;17.00;8.00;;;;;;;6.67;100.00;93010.69;2099350;28;20089;-81
2023/05/29 02:49:22;;;;;;;13.57;7.68;;;;;;;6.64;100.00;93003.47;2098264;28;20028;-83
2023/05/29 02:50:31;;;;;;;16.02;8.57;;;;;;;6.70;100.00;93009.13;2107291;28;20515;-82
2023/05/29 02:51:39;;;;;;;18.92;8.48;;;;;;;6.65;100.00;93001.59;2117381;27;20076;-85
2023/05/29 02:52:50;;;;;;;21.95;8.50;;;;;;;6.65;100.00;93007.63;2105816;28;20109;-84
2023/05/29 02:53:59;;;;;;;17.30;8.07;;;;;;;6.72;100.00;93001.53;2100075;28;20064;-82
2023/05/29 02:55:10;;;;;;;16.33;8.50;;;;;;;6.63;100.00;92994.00;2100459;28;20115;-84
2023/05/29 02:56:23;;;;;;;17.55;8.65;;;;;;;6.62;100.00;92995.13;2100757;28;20056;-84
2023/05/29 02:57:33;;;;;;;23.27;8.32;;;;;;;6.59;100.00;92993.28;2106399;28;20046;-83
2023/05/29 02:58:42;;;;;;;19.35;8.70;;;;;;;6.54;100.00;92996.34;2089243;28;20485;-85
2023/05/29 02:59:52;;;;;;;15.63;8.50;;;;;;;6.56;100.00;92996.72;2098338;28;20032;-84
2023/05/29 03:01:04;;;;;;;20.98;8.30;;;;;;;6.66;100.00;93001.19;2099378;28;20473;-84
2023/05/29 03:02:12;;;;;;;15.90;8.70;;;;;;;6.51;100.00;92999.81;2094177;28;20466;-83
2023/05/29 03:03:23;;;;;;;16.50;8.13;;;;;;;6.62;100.00;92992.47;2097560;28;20037;-83
2023/05/29 03:04:33;;;;;;;19.35;8.68;;;;;;;6.52;100.00;92991.44;2103067;28;20028;-83
2023/05/29 03:05:45;;;;;;;19.83;8.85;;;;;;;6.48;100.00;92998.69;2101474;28;20024;-83
2023/05/29 03:06:54;;;;;;;17.20;8.45;;;;;;;6.39;100.00;92995.72;2103752;28;20024;-83
2023/05/29 03:08:05;;;;;;;15.35;8.05;;;;;;;6.45;100.00;92994.16;2090107;28;20067;-83
2023/05/29 03:09:16;;;;;;;17.52;7.95;;;;;;;6.46;100.00;92995.66;2102017;28;20021;-84
2023/05/29 03:10:29;;;;;;;17.75;8.60;;;;;;;6.43;100.00;92995.69;2095959;28;20225;-84
2023/05/29 03:11:41;;;;;;;18.92;8.93;;;;;;;6.53;100.00;92995.59;2089120;28;20364;-86
2023/05/29 03:12:54;;;;;;;18.48;9.05;;;;;;;6.50;100.00;92999.06;2107393;28;20039;-84
2023/05/29 03:14:03;;;;;;;17.73;8.55;;;;;;;6.44;100.00;92997.94;2108027;28;20553;-83
2023/05/29 03:15:14;;;;;;;18.98;8.77;;;;;;;6.43;100.00;93001.75;2097318;28;20029;-84
2023/05/29 03:16:25;;;;;;;20.75;9.27;;;;;;;6.49;100.00;92996.78;2096111;28;20095;-85
2023/05/29 03:17:33;;;;;;;21.63;9.27;;;;;;;6.42;100.00;93002.16;2098822;28;20047;-83
2023/05/29 03:18:45;;;;;;;20.55;8.30;;;;;;;6.39;100.00;92993.06;2103668;28;20509;-83
2023/05/29 03:20:05;;;;;;;20.75;9.15;;;;;;;6.40;100.00;92999.13;2111427;28;20036;-84
2023/05/29 03:21:15;;;;;;;16.13;9.05;;;;;;;6.40;100.00;92996.47;2111914;28;20042;-87
2023/05/29 03:22:24;;;;;;;18.85;8.27;;;;;;;6.40;100.00;92999.88;2097308;28;20081;-84
2023/05/29 03:23:35;;;;;;;14.60;8.52;;;;;;;6.43;100.00;93001.00;2095358;28;20045;-82
2023/05/29 03:24:47;;;;;;;17.25;8.05;;;;;;;6.37;100.00;93003.34;2095725;28;20039;-85
2023/05/29 03:25:57;;;;;;;18.05;8.80;;;;;;;6.38;100.00;93001.44;2096730;28;20537;-85
2023/05/29 03:27:08;;;;;;;21.30;9.27;;;;;;;6.33;100.00;93001.84;2108983;27;20023;-84
2023/05/29 03:28:18;;;;;;;20.20;8.82;;;;;;;6.30;100.00;92995.41;2116949;28;20128;-83
2023/05/29 03:29:28;;;;;;;15.70;8.30;;;;;;;6.21;100.00;92995.09;2100230;28;20119;-84
2023/05/29 03:30:41;;;;;;;21.63;8.57;;;;;;;6.25;100.00;92995.84;2097397;28;20116;-83
2023/05/29 03:31:50;;;;;;;17.85;8.48;;;;;;;6.18;100.00;92993.22;2107369;28;20032;-86
2023/05/29 03:33:03;;;;;;;18.17;8.63;;;;;;;6.19;100.00;92992.06;2103512;28;20493;-83
2023/05/29 03:34:19;;;;;;;18.00;8.52;;;;;;;6.30;100.00;92995.41;2110286;28;20026;-83
2023/05/29 03:35:29;;;;;;;17.98;8.07;;;;;;;6.28;100.00;92993.16;2099649;28;20020;-84
2023/05/29 03:36:41;;;;;;;22.17;8.40;;;;;;;6.28;100.00;92993.16;2094390;28;20028;-83
2023/05/29 03:37:50;;;;;;;15.63;7.88;;;;;;;6.24;100.00;92981.81;2097123;28;20406;-82
2023/05/29 03:39:01;;;;;;;15.20;7.95;;;;;;;6.22;100.00;92986.00;2093914;28;20036;-84
2023/05/29 03:40:11;;;;;;;13.98;8.32;;;;;;;6.20;100.00;92988.28;2088468;28;20063;-81
2023/05/29 03:41:22;;;;;;;18.08;8.45;;;;;;;6.21;100.00;92981.84;2087622;28;20025;-87
2023/05/29 03:42:31;;;;;;;18.10;8.63;;;;;;;6.19;100.00;92992.06;2086589;28;20224;-82
2023/05/29 03:43:40;;;;;;;17.10;8.20;;;;;;;6.19;100.00;92986.75;2089691;28;20079;-85
2023/05/29 03:44:49;;;;;;;25.02;9.45;;;;;;;6.13;100.00;92983.78;2087055;28;20032;-83
2023/05/29 03:45:57;;;;;;;20.52;8.63;;;;;;;6.17;100.00;92983.75;2098515;28;20119;-84
2023/05/29 03:47:08;;;;;;;17.33;8.75;;;;;;;6.15;100.00;92984.16;2093204;28;20473;-84
2023/05/29 03:48:18;;;;;;;21.40;8.93;;;;;;;6.17;100.00;92979.19;2087675;28;20044;-85
2023/05/29 03:49:28;;;;;;;17.30;8.23;;;;;;;6.08;100.00;92980.78;2097089;28;20035;-83
2023/05/29 03:50:37;;;;;;;20.40;8.57;;;;;;;6.13;100.00;92988.34;2101477;28;20047;-85
2023/05/29 03:51:47;;;;;;;20.83;8.55;;;;;;;6.14;100.00;92989.84;2090478;28;20044;-85
2023/05/29 03:52:56;;;;;;;17.73;8.38;;;;;;;6.19;100.00;92989.41;2089788;28;20056;-84
2023/05/29 03:54:11;;;;;;;19.70;8.30;;;;;;;6.15;100.00;92991.38;2086267;28;20450;-87
2023/05/29 03:55:21;;;;;;;22.30;9.18;;;;;;;6.05;100.00;92991.03;2084801;28;20033;-85
2023/05/29 03:56:27;;;;;;;;;;;;;;;6.14;100.00;93000.44;2094171;28;20060;-83
2023/05/29 03:57:37;;;;;;;16.67;8.85;;;;;;;6.24;100.00;92999.63;2093221;28;19920;-83
2023/05/29 03:58:50;;;;;;;16.15;8.57;;;;;;;6.30;100.00;92998.81;2093217;28;20020;-83
2023/05/29 03:59:59;;;;;;;20.13;9.35;;;;;;;6.25;100.00;93001.13;2098236;28;20024;-83
2023/05/29 04:01:09;;;;;;;19.52;8.43;;;;;;;6.15;100.00;93002.72;2094207;28;20082;-84
2023/05/29 04:02:19;;;;;;;18.70;8.20;;;;;;;6.21;100.00;93003.06;2097423;28;20024;-84
2023/05/29 04:03:29;;;;;;;21.70;8.60;;;;;;;6.32;100.00;93001.06;2104325;28;20031;-84
2023/05/29 04:04:39;;;;;;;22.30;10.20;;;;;;;6.34;100.00;93001.44;2100385;28;20032;-84
2023/05/29 04:05:53;;;;;;;25.30;8.77;;;;;;;6.27;100.00;93006.81;2090026;28;20036;-83
2023/05/29 04:07:02;;;;;;;19.58;8.70;;;;;;;6.31;100.00;93004.88;2099495;28;20025;-85
2023/05/29 04:08:15;;;;;;;26.75;9.55;;;;;;;6.32;100.00;93001.06;2093668;28;20028;-84
2023/05/29 04:09:25;;;;;;;17.85;8.75;;;;;;;6.31;100.00;93005.63;2087924;28;20112;-84
2023/05/29 04:10:34;;;;;;;20.85;8.77;;;;;;;6.34;100.00;93006.00;2092877;28;20431;-86
2023/05/29 04:11:44;;;;;;;18.20;8.95;;;;;;;6.37;100.00;93007.88;2097822;28;20037;-85
2023/05/29 04:12:51;;;;;;;;;;;;;;;6.40;100.00;93004.44;2104167;28;20020;-84
2023/05/29 04:14:00;;;;;;;20.42;8.57;;;;;;;6.40;100.00;93013.16;2096096;28;19913;-83
2023/05/29 04:15:15;;;;;;;23.08;9.15;;;;;;;6.41;100.00;93016.56;2091679;28;20025;-85
2023/05/29 04:16:24;;;;;;;15.43;8.30;;;;;;;6.43;100.00;93022.25;2093495;28;20544;-82
2023/05/29 04:17:34;;;;;;;24.17;9.05;;;;;;;6.37;100.00;93015.84;2092935;28;20112;-83
2023/05/29 04:18:44;;;;;;;18.33;8.93;;;;;;;6.43;100.00;93024.91;2101134;28;20481;-82
2023/05/29 04:19:53;;;;;;;19.35;8.43;;;;;;;6.56;100.00;93016.06;2103705;28;20558;-84
2023/05/29 04:21:03;;;;;;;19.75;9.23;;;;;;;6.52;100.00;93025.19;2096671;28;20033;-81
2023/05/29 04:22:11;;;;;;;18.20;9.20;;;;;;;6.47;100.00;93029.03;2090003;28;20116;-81
2023/05/29 04:23:21;;;;;;;18.70;9.00;;;;;;;6.52;100.00;93022.53;2087031;28;20025;-84
2023/05/29 04:24:31;;;;;;;19.08;9.02;;;;;;;6.54;100.00;93034.31;2093465;28;20465;-84
2023/05/29 04:25:37;;;;;;;;;;;;;;;6.59;100.00;93037.69;2087527;28;20040;-82
2023/05/29 04:26:47;;;;;;;19.17;8.15;;;;;;;6.58;100.00;93034.25;2093080;28;19913;-83
2023/05/29 04:28:01;;;;;;;17.30;8.45;;;;;;;6.62;100.00;93037.63;2110964;28;20035;-83
2023/05/29 04:29:12;;;;;;;20.73;9.10;;;;;;;6.63;100.00;93035.72;2103271;28;20074;-85
2023/05/29 04:30:25;;;;;;;24.23;8.60;;;;;;;6.58;100.00;93042.22;2095743;28;20127;-85
2023/05/29 04:31:36;;;;;;;18.83;8.88;;;;;;;6.61;100.00;93038.78;2098647;28;20549;-82
2023/05/29 04:32:48;;;;;;;18.15;8.95;;;;;;;6.67;100.00;93039.88;2095349;28;20517;-84
2023/05/29 04:34:00;;;;;;;19.55;8.80;;;;;;;6.66;100.00;93035.69;2094892;28;20052;-87
2023/05/29 04:35:11;;;;;;;20.08;8.82;;;;;;;6.68;100.00;93041.41;2093787;28;20069;-85
2023/05/29 04:36:27;;;;;;;17.17;9.30;;;;;;;6.71;100.00;93048.56;2097835;28;20103;-84
2023/05/29 04:37:38;;;;;;;20.02;9.05;;;;;;;6.80;100.00;93045.44;2106432;28;20028;-86
2023/05/29 04:38:50;;;;;;;21.33;8.95;;;;;;;6.75;100.00;93040.56;2105352;28;20035;-85
2023/05/29 04:40:05;;;;;;;18.20;9.00;;;;;;;6.84;100.00;93043.53;2100624;28;20016;-82
2023/05/29 04:41:14;;;;;;;18.52;8.90;;;;;;;6.87;100.00;93042.75;2090416;28;20013;-84
2023/05/29 04:42:24;;;;;;;15.68;8.60;;;;;;;6.92;100.00;93050.28;2087502;28;20489;-85
2023/05/29 04:43:36;;;;;;;22.55;9.90;;;;;;;7.00;100.00;93048.31;2089701;28;20029;-84
2023/05/29 04:44:46;;;;;;;22.42;9.10;;;;;;;6.98;100.00;93043.41;2098957;28;20036;-84
2023/05/29 04:45:56;;;;;;;17.27;9.75;;;;;;;6.98;100.00;93042.63;2105787;28;20083;-84
2023/05/29 04:47:02;;;;;;;;;;;;;;;7.04;100.00;93041.81;2097303;28;20044;-86
2023/05/29 04:48:16;;;;;;;21.00;9.45;;;;;;;7.13;100.00;93041.34;2095111;28;20389;-85
2023/05/29 04:49:27;;;;;;;19.83;9.70;;;;;;;7.13;100.00;93043.25;2097572;28;20032;-88
2023/05/29 04:50:38;;;;;;;18.80;9.43;;;;;;;7.15;100.00;93047.03;2096866;28;20032;-84
2023/05/29 04:51:52;;;;;;;22.13;9.40;;;;;;;7.18;100.00;93048.91;2098176;28;20029;-85
2023/05/29 04:53:03;;;;;;;19.38;9.73;;;;;;;7.26;100.00;93046.94;2103539;28;20035;-85
2023/05/29 04:54:13;;;;;;;17.00;9.38;;;;;;;7.31;100.00;93047.25;2098353;28;20032;-84
2023/05/29 04:55:23;;;;;;;19.35;9.27;;;;;;;7.29;100.00;93054.88;2094088;28;20056;-83
2023/05/29 04:56:32;;;;;;;23.05;9.57;;;;;;;7.34;100.00;93050.28;2098027;28;20032;-83
2023/05/29 04:57:41;;;;;;;20.88;9.45;;;;;;;7.37;100.00;93050.22;2102277;28;20036;-84
2023/05/29 04:58:52;;;;;;;17.40;9.43;;;;;;;7.41;100.00;93055.50;2094664;28;20032;-83
2023/05/29 05:00:05;;;;;;;21.10;9.32;;;;;;;7.46;100.00;93057.72;2095524;28;20025;-84
2023/05/29 05:01:17;;;;;;;20.85;9.27;;;;;;;7.51;100.00;93055.41;2090771;28;20024;-84
2023/05/29 05:02:29;;;;;;;20.20;9.93;;;;;;;7.56;100.00;93059.53;2094794;28;20051;-82
2023/05/29 05:03:40;;;;;;;18.45;8.77;;;;;;;7.59;100.00;93053.38;2104298;28;20496;-85
2023/05/29 05:04:50;;;;;;;18.67;9.63;;;;;;;7.66;100.00;93049.91;2106283;28;22309;-81
2023/05/29 05:06:12;;;;;;;21.85;10.32;;;;;;;7.70;100.00;93053.28;2101090;28;20085;-84
2023/05/29 05:07:20;;;;;;;16.80;8.57;;;;;;;7.76;100.00;93049.00;2104537;28;20595;-84
2023/05/29 05:08:29;;;;;;;19.75;9.55;;;;;;;7.80;100.00;93052.38;2091879;28;20104;-84
2023/05/29 05:09:39;;;;;;;20.83;9.27;;;;;;;7.82;100.00;93052.75;2085704;28;20525;-85
2023/05/29 05:10:48;;;;;;;18.75;8.85;;;;;;;7.84;100.00;93050.44;2089628;28;20497;-84
2023/05/29 05:11:59;;;;;;;19.23;8.90;;;;;;;7.90;100.00;93050.75;2093688;28;20025;-83
2023/05/29 05:13:11;;;;;;;23.17;9.98;;;;;;;7.96;100.00;93049.16;2092831;28;20116;-84
2023/05/29 05:14:21;;;;;;;19.88;9.57;;;;;;;7.99;100.00;93045.69;2090445;28;20108;-85
2023/05/29 05:15:31;;;;;;;21.48;10.20;;;;;;;8.11;100.00;93047.81;2097564;28;20059;-84
2023/05/29 05:16:38;;;;;;;;;;;;;;;8.19;100.00;93051.88;2090529;28;20116;-84
2023/05/29 05:17:47;;;;;;;20.65;9.05;;;;;;;8.21;100.00;93048.81;2097504;28;19939;-84
2023/05/29 05:18:57;;;;;;;23.17;10.75;;;;;;;8.35;100.00;93055.88;2094482;28;20032;-84
2023/05/29 05:20:08;;;;;;;21.33;10.57;;;;;;;8.37;100.00;93042.91;2085954;28;20478;-86
2023/05/29 05:21:18;;;;;;;24.40;10.32;;;;;;;8.43;100.00;93047.41;2086243;28;20138;-88
2023/05/29 05:22:28;;;;;;;24.35;11.27;;;;;;;8.46;100.00;93051.91;2095179;28;20123;-82
2023/05/29 05:23:38;;;;;;;25.75;11.43;;;;;;;8.52;100.00;93052.97;2094136;28;20170;-85
2023/05/29 05:24:44;;;;;;;;;;;;;;;8.61;100.00;93049.03;2092696;28;20043;-84
2023/05/29 05:25:54;;;;;;;29.98;11.95;;;;;;;8.70;100.00;93059.94;2084890;28;19971;-85
2023/05/29 05:27:03;;;;;;;22.70;9.38;;;;;;;8.80;100.00;93053.69;2096014;28;20024;-84
2023/05/29 05:28:16;;;;;;;32.55;12.35;;;;;;;8.86;100.00;93045.97;2095418;28;20459;-87
2023/05/29 05:29:29;;;;;;;26.15;10.70;;;;;;;8.93;100.00;93048.53;2096950;28;20457;-83
2023/05/29 05:30:39;;;;;;;22.13;10.27;;;;;;;8.99;100.00;93042.31;2089567;28;20028;-84
2023/05/29 05:31:51;;;;;;;26.60;10.65;;;;;;;9.17;100.00;93054.59;2096802;28;20051;-86
2023/05/29 05:33:04;;;;;;;25.65;10.10;;;;;;;9.21;100.00;93042.69;2099269;28;20096;-87
2023/05/29 05:34:13;;;;;;;27.48;11.27;;;;;;;9.39;100.00;93053.03;2090061;28;20107;-86
2023/05/29 05:35:23;;;;;;;31.02;11.75;;;;;;;9.42;100.00;93051.47;2093856;28;20098;-83